sensor_id;sensor_type;location;lat;lon;timestamp;temperature;humidity
5457;DHT22;2751;49.802;9.944;2022-09-09T00:01:49;16.20;99.90
5457;DHT22;2751;49.802;9.944;2022-09-09T00:04:26;16.20;99.90
5457;DHT22;2751;49.802;9.944;2022-09-09T00:06:59;16.20;99.90
5457;DHT22;2751;49.802;9.944;2022-09-09T00:09:30;16.10;99.90
5457;DHT22;2751;49.802;9.944;2022-09-09T00:12:02;16.10;99.90
5457;DHT22;2751;49.802;9.944;2022-09-09T00:14:37;16.10;99.90
5457;DHT22;2751;49.802;9.944;2022-09-09T00:17:09;16.10;99.90
5457;DHT22;2751;49.802;9.944;2022-09-09T00:19:43;16.10;99.90
5457;DHT22;2751;49.802;9.944;2022-09-09T00:22:17;16.20;99.90
5457;DHT22;2751;49.802;9.944;2022-09-09T00:24:46;16.10;99.90
5457;DHT22;2751;49.802;9.944;2022-09-09T00:27:24;16.10;99.90
5457;DHT22;2751;49.802;9.944;2022-09-09T00:29:56;16.10;99.90
5457;DHT22;2751;49.802;9.944;2022-09-09T00:32:29;16.20;99.90
5457;DHT22;2751;49.802;9.944;2022-09-09T00:35:00;16.20;99.90
5457;DHT22;2751;49.802;9.944;2022-09-09T00:37:28;16.20;99.90
5457;DHT22;2751;49.802;9.944;2022-09-09T00:40:00;16.20;99.90
5457;DHT22;2751;49.802;9.944;2022-09-09T00:42:38;16.10;99.90
5457;DHT22;2751;49.802;9.944;2022-09-09T00:45:19;16.10;99.90
5457;DHT22;2751;49.802;9.944;2022-09-09T00:47:54;16.00;99.90
5457;DHT22;2751;49.802;9.944;2022-09-09T00:50:36;16.10;99.90
5457;DHT22;2751;49.802;9.944;2022-09-09T00:53:24;16.10;99.90
5457;DHT22;2751;49.802;9.944;2022-09-09T00:56:03;16.00;99.90
5457;DHT22;2751;49.802;9.944;2022-09-09T00:58:33;16.10;99.90
5457;DHT22;2751;49.802;9.944;2022-09-09T01:01:03;16.10;99.90
5457;DHT22;2751;49.802;9.944;2022-09-09T01:03:35;16.10;99.90
5457;DHT22;2751;49.802;9.944;2022-09-09T01:06:12;16.10;99.90
5457;DHT22;2751;49.802;9.944;2022-09-09T01:11:51;16.20;99.90
5457;DHT22;2751;49.802;9.944;2022-09-09T01:14:29;16.20;99.90
5457;DHT22;2751;49.802;9.944;2022-09-09T01:17:00;16.20;99.90
5457;DHT22;2751;49.802;9.944;2022-09-09T01:19:40;16.10;99.90
5457;DHT22;2751;49.802;9.944;2022-09-09T01:22:18;16.10;99.90
5457;DHT22;2751;49.802;9.944;2022-09-09T01:25:18;16.10;99.90
5457;DHT22;2751;49.802;9.944;2022-09-09T01:27:49;16.10;99.90
5457;DHT22;2751;49.802;9.944;2022-09-09T01:30:18;16.10;99.90
5457;DHT22;2751;49.802;9.944;2022-09-09T01:32:46;16.10;99.90
5457;DHT22;2751;49.802;9.944;2022-09-09T01:35:21;16.10;99.90
5457;DHT22;2751;49.802;9.944;2022-09-09T01:37:52;16.20;99.90
5457;DHT22;2751;49.802;9.944;2022-09-09T01:40:19;16.20;99.90
5457;DHT22;2751;49.802;9.944;2022-09-09T01:42:47;16.20;99.90
5457;DHT22;2751;49.802;9.944;2022-09-09T01:45:14;16.20;99.90
5457;DHT22;2751;49.802;9.944;2022-09-09T01:47:41;16.20;99.90
5457;DHT22;2751;49.802;9.944;2022-09-09T01:50:10;16.20;99.90
5457;DHT22;2751;49.802;9.944;2022-09-09T01:52:39;16.20;99.90
5457;DHT22;2751;49.802;9.944;2022-09-09T01:55:07;16.20;99.90
5457;DHT22;2751;49.802;9.944;2022-09-09T01:57:41;16.20;99.90
5457;DHT22;2751;49.802;9.944;2022-09-09T02:00:14;16.20;99.90
5457;DHT22;2751;49.802;9.944;2022-09-09T02:02:48;16.30;99.90
5457;DHT22;2751;49.802;9.944;2022-09-09T02:05:30;16.30;99.90
5457;DHT22;2751;49.802;9.944;2022-09-09T02:08:05;16.30;99.90
5457;DHT22;2751;49.802;9.944;2022-09-09T02:10:37;16.30;99.90
5457;DHT22;2751;49.802;9.944;2022-09-09T02:13:10;16.30;99.90
5457;DHT22;2751;49.802;9.944;2022-09-09T02:15:44;16.30;99.90
5457;DHT22;2751;49.802;9.944;2022-09-09T02:18:13;16.30;99.90
5457;DHT22;2751;49.802;9.944;2022-09-09T02:20:43;16.30;99.90
5457;DHT22;2751;49.802;9.944;2022-09-09T02:23:13;16.30;99.90
5457;DHT22;2751;49.802;9.944;2022-09-09T02:25:41;16.30;99.90
5457;DHT22;2751;49.802;9.944;2022-09-09T02:28:10;16.30;99.90
5457;DHT22;2751;49.802;9.944;2022-09-09T02:30:40;16.30;99.90
5457;DHT22;2751;49.802;9.944;2022-09-09T02:33:08;16.20;99.90
5457;DHT22;2751;49.802;9.944;2022-09-09T02:35:37;16.20;99.90
5457;DHT22;2751;49.802;9.944;2022-09-09T02:38:07;16.20;99.90
5457;DHT22;2751;49.802;9.944;2022-09-09T02:40:36;16.20;99.90
5457;DHT22;2751;49.802;9.944;2022-09-09T02:43:03;16.20;99.90
5457;DHT22;2751;49.802;9.944;2022-09-09T02:45:36;16.20;99.90
5457;DHT22;2751;49.802;9.944;2022-09-09T02:48:11;16.10;99.90
5457;DHT22;2751;49.802;9.944;2022-09-09T02:50:48;16.10;99.90
5457;DHT22;2751;49.802;9.944;2022-09-09T02:53:22;16.00;99.90
5457;DHT22;2751;49.802;9.944;2022-09-09T02:55:55;15.90;99.90
5457;DHT22;2751;49.802;9.944;2022-09-09T02:58:24;15.90;99.90
5457;DHT22;2751;49.802;9.944;2022-09-09T03:00:51;15.80;99.90
5457;DHT22;2751;49.802;9.944;2022-09-09T03:03:20;15.80;99.90
5457;DHT22;2751;49.802;9.944;2022-09-09T03:05:47;15.80;99.90
5457;DHT22;2751;49.802;9.944;2022-09-09T03:08:15;15.80;99.90
5457;DHT22;2751;49.802;9.944;2022-09-09T03:10:42;15.80;99.90
5457;DHT22;2751;49.802;9.944;2022-09-09T03:13:10;15.80;99.90
5457;DHT22;2751;49.802;9.944;2022-09-09T03:15:38;15.80;99.90
5457;DHT22;2751;49.802;9.944;2022-09-09T03:18:05;15.90;99.90
5457;DHT22;2751;49.802;9.944;2022-09-09T03:20:33;16.10;99.90
5457;DHT22;2751;49.802;9.944;2022-09-09T03:23:01;16.10;99.90
5457;DHT22;2751;49.802;9.944;2022-09-09T03:25:28;16.20;99.90
5457;DHT22;2751;49.802;9.944;2022-09-09T03:27:55;16.20;99.90
5457;DHT22;2751;49.802;9.944;2022-09-09T03:30:23;16.20;99.90
5457;DHT22;2751;49.802;9.944;2022-09-09T03:32:50;16.20;99.90
5457;DHT22;2751;49.802;9.944;2022-09-09T03:35:17;16.20;99.90
5457;DHT22;2751;49.802;9.944;2022-09-09T03:37:46;16.10;99.90
5457;DHT22;2751;49.802;9.944;2022-09-09T03:40:13;16.10;99.90
5457;DHT22;2751;49.802;9.944;2022-09-09T03:42:40;16.10;99.90
5457;DHT22;2751;49.802;9.944;2022-09-09T03:45:09;16.10;99.90
5457;DHT22;2751;49.802;9.944;2022-09-09T03:47:36;16.10;99.90
5457;DHT22;2751;49.802;9.944;2022-09-09T03:50:04;16.00;99.90
5457;DHT22;2751;49.802;9.944;2022-09-09T03:52:35;16.00;99.90
5457;DHT22;2751;49.802;9.944;2022-09-09T03:55:04;16.00;99.90
5457;DHT22;2751;49.802;9.944;2022-09-09T03:57:31;16.00;99.90
5457;DHT22;2751;49.802;9.944;2022-09-09T04:00:01;16.00;99.90
5457;DHT22;2751;49.802;9.944;2022-09-09T04:02:28;16.00;99.90
5457;DHT22;2751;49.802;9.944;2022-09-09T04:04:55;16.00;99.90
5457;DHT22;2751;49.802;9.944;2022-09-09T04:07:22;16.00;99.90
5457;DHT22;2751;49.802;9.944;2022-09-09T04:09:49;16.10;99.90
5457;DHT22;2751;49.802;9.944;2022-09-09T04:12:17;16.10;99.90
5457;DHT22;2751;49.802;9.944;2022-09-09T04:14:44;16.10;99.90
5457;DHT22;2751;49.802;9.944;2022-09-09T04:17:11;16.10;99.90
5457;DHT22;2751;49.802;9.944;2022-09-09T04:19:38;16.10;99.90
5457;DHT22;2751;49.802;9.944;2022-09-09T04:22:05;16.10;99.90
5457;DHT22;2751;49.802;9.944;2022-09-09T04:24:32;16.10;99.90
5457;DHT22;2751;49.802;9.944;2022-09-09T04:26:59;16.10;99.90
5457;DHT22;2751;49.802;9.944;2022-09-09T04:29:27;16.10;99.90
5457;DHT22;2751;49.802;9.944;2022-09-09T04:31:54;16.10;99.90
5457;DHT22;2751;49.802;9.944;2022-09-09T04:34:21;16.00;99.90
5457;DHT22;2751;49.802;9.944;2022-09-09T04:36:48;16.00;99.90
5457;DHT22;2751;49.802;9.944;2022-09-09T04:39:14;16.00;99.90
5457;DHT22;2751;49.802;9.944;2022-09-09T04:41:41;16.00;99.90
5457;DHT22;2751;49.802;9.944;2022-09-09T04:44:08;16.00;99.90
5457;DHT22;2751;49.802;9.944;2022-09-09T04:46:36;16.00;99.90
5457;DHT22;2751;49.802;9.944;2022-09-09T04:49:03;15.90;99.90
5457;DHT22;2751;49.802;9.944;2022-09-09T04:51:30;15.90;99.90
5457;DHT22;2751;49.802;9.944;2022-09-09T04:53:57;15.90;99.90
5457;DHT22;2751;49.802;9.944;2022-09-09T04:56:25;15.90;99.90
5457;DHT22;2751;49.802;9.944;2022-09-09T04:58:53;15.80;99.90
5457;DHT22;2751;49.802;9.944;2022-09-09T05:01:22;15.80;99.90
5457;DHT22;2751;49.802;9.944;2022-09-09T05:03:51;15.80;99.90
5457;DHT22;2751;49.802;9.944;2022-09-09T05:06:20;15.80;99.90
5457;DHT22;2751;49.802;9.944;2022-09-09T05:08:47;15.80;99.90
5457;DHT22;2751;49.802;9.944;2022-09-09T05:11:16;15.90;99.90
5457;DHT22;2751;49.802;9.944;2022-09-09T05:13:44;15.90;99.90
5457;DHT22;2751;49.802;9.944;2022-09-09T05:16:11;15.90;99.90
5457;DHT22;2751;49.802;9.944;2022-09-09T05:18:39;16.00;99.90
5457;DHT22;2751;49.802;9.944;2022-09-09T05:21:07;16.00;99.90
5457;DHT22;2751;49.802;9.944;2022-09-09T05:23:35;16.00;99.90
5457;DHT22;2751;49.802;9.944;2022-09-09T05:26:03;16.00;99.90
5457;DHT22;2751;49.802;9.944;2022-09-09T05:28:33;16.10;99.90
5457;DHT22;2751;49.802;9.944;2022-09-09T05:31:03;16.10;99.90
5457;DHT22;2751;49.802;9.944;2022-09-09T05:33:31;16.20;99.90
5457;DHT22;2751;49.802;9.944;2022-09-09T05:35:59;16.20;99.90
5457;DHT22;2751;49.802;9.944;2022-09-09T05:38:29;16.30;99.90
5457;DHT22;2751;49.802;9.944;2022-09-09T05:40:56;16.40;99.90
5457;DHT22;2751;49.802;9.944;2022-09-09T05:43:23;16.50;99.90
5457;DHT22;2751;49.802;9.944;2022-09-09T05:45:59;16.50;99.90
5457;DHT22;2751;49.802;9.944;2022-09-09T05:48:28;16.60;99.90
5457;DHT22;2751;49.802;9.944;2022-09-09T05:50:55;16.60;99.90
5457;DHT22;2751;49.802;9.944;2022-09-09T05:53:22;16.70;99.90
5457;DHT22;2751;49.802;9.944;2022-09-09T05:55:50;16.70;99.90
5457;DHT22;2751;49.802;9.944;2022-09-09T05:58:18;16.80;99.90
5457;DHT22;2751;49.802;9.944;2022-09-09T06:00:45;16.80;99.90
5457;DHT22;2751;49.802;9.944;2022-09-09T06:03:12;16.90;99.90
5457;DHT22;2751;49.802;9.944;2022-09-09T06:05:39;16.90;99.90
5457;DHT22;2751;49.802;9.944;2022-09-09T06:08:06;17.00;99.90
5457;DHT22;2751;49.802;9.944;2022-09-09T06:10:33;17.00;99.90
5457;DHT22;2751;49.802;9.944;2022-09-09T06:13:02;17.00;99.90
5457;DHT22;2751;49.802;9.944;2022-09-09T06:15:29;17.00;99.90
5457;DHT22;2751;49.802;9.944;2022-09-09T06:17:57;17.00;99.90
5457;DHT22;2751;49.802;9.944;2022-09-09T06:20:24;17.00;99.90
5457;DHT22;2751;49.802;9.944;2022-09-09T06:22:51;17.10;99.90
5457;DHT22;2751;49.802;9.944;2022-09-09T06:25:18;17.20;99.90
5457;DHT22;2751;49.802;9.944;2022-09-09T06:27:48;17.10;99.90
5457;DHT22;2751;49.802;9.944;2022-09-09T06:30:17;17.10;99.90
5457;DHT22;2751;49.802;9.944;2022-09-09T06:32:45;17.20;99.90
5457;DHT22;2751;49.802;9.944;2022-09-09T06:35:12;17.20;99.90
5457;DHT22;2751;49.802;9.944;2022-09-09T06:37:39;17.30;99.90
5457;DHT22;2751;49.802;9.944;2022-09-09T06:40:07;17.30;99.90
5457;DHT22;2751;49.802;9.944;2022-09-09T06:42:34;17.30;99.90
5457;DHT22;2751;49.802;9.944;2022-09-09T06:45:00;17.40;99.90
5457;DHT22;2751;49.802;9.944;2022-09-09T06:47:29;17.30;99.90
5457;DHT22;2751;49.802;9.944;2022-09-09T06:49:56;17.30;99.90
5457;DHT22;2751;49.802;9.944;2022-09-09T06:52:23;17.50;99.90
5457;DHT22;2751;49.802;9.944;2022-09-09T06:54:51;17.60;99.90
5457;DHT22;2751;49.802;9.944;2022-09-09T06:57:18;17.70;99.90
5457;DHT22;2751;49.802;9.944;2022-09-09T06:59:45;17.90;99.90
5457;DHT22;2751;49.802;9.944;2022-09-09T07:02:12;18.00;99.90
5457;DHT22;2751;49.802;9.944;2022-09-09T07:04:41;18.10;99.90
5457;DHT22;2751;49.802;9.944;2022-09-09T07:07:08;18.00;99.90
5457;DHT22;2751;49.802;9.944;2022-09-09T07:09:37;18.10;99.90
5457;DHT22;2751;49.802;9.944;2022-09-09T07:12:05;18.10;99.90
5457;DHT22;2751;49.802;9.944;2022-09-09T07:14:32;18.20;99.90
5457;DHT22;2751;49.802;9.944;2022-09-09T07:16:59;18.30;99.90
5457;DHT22;2751;49.802;9.944;2022-09-09T07:19:26;18.50;99.90
5457;DHT22;2751;49.802;9.944;2022-09-09T07:21:55;18.50;99.90
5457;DHT22;2751;49.802;9.944;2022-09-09T07:24:22;18.60;99.90
5457;DHT22;2751;49.802;9.944;2022-09-09T07:26:49;18.60;99.90
5457;DHT22;2751;49.802;9.944;2022-09-09T07:29:17;18.50;99.90
5457;DHT22;2751;49.802;9.944;2022-09-09T07:31:44;18.50;99.90
5457;DHT22;2751;49.802;9.944;2022-09-09T07:34:11;18.70;99.90
5457;DHT22;2751;49.802;9.944;2022-09-09T07:36:39;18.80;99.90
5457;DHT22;2751;49.802;9.944;2022-09-09T07:39:10;19.50;99.90
5457;DHT22;2751;49.802;9.944;2022-09-09T07:41:41;19.70;99.90
5457;DHT22;2751;49.802;9.944;2022-09-09T07:44:09;19.80;99.90
5457;DHT22;2751;49.802;9.944;2022-09-09T07:46:37;20.00;99.90
5457;DHT22;2751;49.802;9.944;2022-09-09T07:49:05;20.30;99.90
5457;DHT22;2751;49.802;9.944;2022-09-09T07:51:34;20.20;99.90
5457;DHT22;2751;49.802;9.944;2022-09-09T07:54:03;20.20;99.90
5457;DHT22;2751;49.802;9.944;2022-09-09T07:56:33;20.20;99.90
5457;DHT22;2751;49.802;9.944;2022-09-09T07:59:01;20.50;99.90
5457;DHT22;2751;49.802;9.944;2022-09-09T08:01:32;20.30;99.90
5457;DHT22;2751;49.802;9.944;2022-09-09T08:04:01;20.80;99.90
5457;DHT22;2751;49.802;9.944;2022-09-09T08:06:29;21.40;99.90
5457;DHT22;2751;49.802;9.944;2022-09-09T08:08:57;22.50;99.90
5457;DHT22;2751;49.802;9.944;2022-09-09T08:11:25;23.10;99.90
5457;DHT22;2751;49.802;9.944;2022-09-09T08:13:55;23.30;99.90
5457;DHT22;2751;49.802;9.944;2022-09-09T08:16:24;22.90;99.90
5457;DHT22;2751;49.802;9.944;2022-09-09T08:18:52;23.40;99.90
5457;DHT22;2751;49.802;9.944;2022-09-09T08:21:21;24.50;99.90
5457;DHT22;2751;49.802;9.944;2022-09-09T08:23:51;25.50;99.90
5457;DHT22;2751;49.802;9.944;2022-09-09T08:26:19;26.00;99.90
5457;DHT22;2751;49.802;9.944;2022-09-09T08:28:48;25.70;99.90
5457;DHT22;2751;49.802;9.944;2022-09-09T08:31:20;25.40;99.90
5457;DHT22;2751;49.802;9.944;2022-09-09T08:33:48;25.60;99.70
5457;DHT22;2751;49.802;9.944;2022-09-09T08:36:16;25.60;98.90
5457;DHT22;2751;49.802;9.944;2022-09-09T08:38:46;26.40;98.40
5457;DHT22;2751;49.802;9.944;2022-09-09T08:41:39;26.10;97.30
5457;DHT22;2751;49.802;9.944;2022-09-09T08:44:09;25.90;97.80
5457;DHT22;2751;49.802;9.944;2022-09-09T08:46:45;26.60;95.40
5457;DHT22;2751;49.802;9.944;2022-09-09T08:49:24;27.10;94.40
5457;DHT22;2751;49.802;9.944;2022-09-09T08:51:57;26.00;94.60
5457;DHT22;2751;49.802;9.944;2022-09-09T08:54:26;25.70;95.50
5457;DHT22;2751;49.802;9.944;2022-09-09T08:56:58;26.00;94.80
5457;DHT22;2751;49.802;9.944;2022-09-09T08:59:25;25.90;94.70
5457;DHT22;2751;49.802;9.944;2022-09-09T09:02:02;26.30;94.40
5457;DHT22;2751;49.802;9.944;2022-09-09T09:04:41;26.50;94.30
5457;DHT22;2751;49.802;9.944;2022-09-09T09:07:18;28.00;91.60
5457;DHT22;2751;49.802;9.944;2022-09-09T09:09:55;28.70;89.60
5457;DHT22;2751;49.802;9.944;2022-09-09T09:12:29;30.00;84.00
5457;DHT22;2751;49.802;9.944;2022-09-09T09:14:56;30.20;79.00
5457;DHT22;2751;49.802;9.944;2022-09-09T09:17:27;29.80;78.70
5457;DHT22;2751;49.802;9.944;2022-09-09T09:19:57;30.20;75.90
5457;DHT22;2751;49.802;9.944;2022-09-09T09:22:32;29.50;76.00
5457;DHT22;2751;49.802;9.944;2022-09-09T09:25:04;29.30;75.90
5457;DHT22;2751;49.802;9.944;2022-09-09T09:27:42;28.40;75.90
5457;DHT22;2751;49.802;9.944;2022-09-09T09:30:15;27.40;77.90
5457;DHT22;2751;49.802;9.944;2022-09-09T09:32:50;27.50;79.70
5457;DHT22;2751;49.802;9.944;2022-09-09T09:35:18;27.50;79.10
5457;DHT22;2751;49.802;9.944;2022-09-09T09:37:45;28.80;78.00
5457;DHT22;2751;49.802;9.944;2022-09-09T09:40:14;29.10;72.10
5457;DHT22;2751;49.802;9.944;2022-09-09T09:42:49;30.20;70.30
5457;DHT22;2751;49.802;9.944;2022-09-09T09:45:23;30.70;68.30
5457;DHT22;2751;49.802;9.944;2022-09-09T09:47:59;31.30;65.60
5457;DHT22;2751;49.802;9.944;2022-09-09T09:50:28;30.80;64.30
5457;DHT22;2751;49.802;9.944;2022-09-09T09:52:56;31.60;62.30
5457;DHT22;2751;49.802;9.944;2022-09-09T09:55:25;32.10;59.50
5457;DHT22;2751;49.802;9.944;2022-09-09T09:57:53;32.30;59.50
5457;DHT22;2751;49.802;9.944;2022-09-09T10:00:21;32.90;58.00
5457;DHT22;2751;49.802;9.944;2022-09-09T10:02:49;33.20;56.10
5457;DHT22;2751;49.802;9.944;2022-09-09T10:05:21;33.40;55.40
5457;DHT22;2751;49.802;9.944;2022-09-09T10:08:00;33.90;54.70
5457;DHT22;2751;49.802;9.944;2022-09-09T10:10:37;33.10;54.50
5457;DHT22;2751;49.802;9.944;2022-09-09T10:13:11;32.30;55.20
5457;DHT22;2751;49.802;9.944;2022-09-09T10:15:46;33.80;53.40
5457;DHT22;2751;49.802;9.944;2022-09-09T10:18:26;35.30;50.30
5457;DHT22;2751;49.802;9.944;2022-09-09T10:21:03;35.20;50.30
5457;DHT22;2751;49.802;9.944;2022-09-09T10:23:46;33.80;49.70
5457;DHT22;2751;49.802;9.944;2022-09-09T10:26:27;33.10;50.00
5457;DHT22;2751;49.802;9.944;2022-09-09T10:29:22;31.70;50.80
5457;DHT22;2751;49.802;9.944;2022-09-09T10:32:04;30.00;52.50
5457;DHT22;2751;49.802;9.944;2022-09-09T10:34:49;28.90;55.00
5457;DHT22;2751;49.802;9.944;2022-09-09T10:37:31;28.20;55.10
5457;DHT22;2751;49.802;9.944;2022-09-09T10:40:08;26.70;57.50
5457;DHT22;2751;49.802;9.944;2022-09-09T10:42:43;25.50;60.90
5457;DHT22;2751;49.802;9.944;2022-09-09T10:45:17;23.50;72.10
5457;DHT22;2751;49.802;9.944;2022-09-09T10:48:06;18.30;99.90
5457;DHT22;2751;49.802;9.944;2022-09-09T10:50:42;14.80;99.90
5457;DHT22;2751;49.802;9.944;2022-09-09T10:53:18;14.40;99.90
5457;DHT22;2751;49.802;9.944;2022-09-09T10:55:52;14.60;99.90
5457;DHT22;2751;49.802;9.944;2022-09-09T10:58:23;14.50;99.90
5457;DHT22;2751;49.802;9.944;2022-09-09T11:00:53;14.60;99.90
5457;DHT22;2751;49.802;9.944;2022-09-09T11:03:23;14.80;99.90
5457;DHT22;2751;49.802;9.944;2022-09-09T11:05:54;15.10;99.90
5457;DHT22;2751;49.802;9.944;2022-09-09T11:08:25;15.20;99.90
5457;DHT22;2751;49.802;9.944;2022-09-09T11:10:59;15.50;99.90
5457;DHT22;2751;49.802;9.944;2022-09-09T11:13:33;15.80;99.90
5457;DHT22;2751;49.802;9.944;2022-09-09T11:16:05;16.50;99.90
5457;DHT22;2751;49.802;9.944;2022-09-09T11:18:40;17.10;99.90
5457;DHT22;2751;49.802;9.944;2022-09-09T11:21:14;17.10;99.90
5457;DHT22;2751;49.802;9.944;2022-09-09T11:23:48;16.90;99.90
5457;DHT22;2751;49.802;9.944;2022-09-09T11:26:20;16.90;99.90
5457;DHT22;2751;49.802;9.944;2022-09-09T11:29:03;17.70;99.90
5457;DHT22;2751;49.802;9.944;2022-09-09T11:31:44;19.90;99.90
5457;DHT22;2751;49.802;9.944;2022-09-09T11:34:42;21.80;99.90
5457;DHT22;2751;49.802;9.944;2022-09-09T11:37:43;22.60;99.90
5457;DHT22;2751;49.802;9.944;2022-09-09T11:40:19;23.70;99.90
5457;DHT22;2751;49.802;9.944;2022-09-09T11:42:48;25.70;99.90
5457;DHT22;2751;49.802;9.944;2022-09-09T11:45:22;26.60;99.90
5457;DHT22;2751;49.802;9.944;2022-09-09T11:47:55;27.20;99.90
5457;DHT22;2751;49.802;9.944;2022-09-09T11:50:34;28.00;99.90
5457;DHT22;2751;49.802;9.944;2022-09-09T11:53:20;28.50;99.90
5457;DHT22;2751;49.802;9.944;2022-09-09T11:56:06;29.90;99.90
5457;DHT22;2751;49.802;9.944;2022-09-09T11:58:38;30.70;99.90
5457;DHT22;2751;49.802;9.944;2022-09-09T12:01:26;28.80;99.90
5457;DHT22;2751;49.802;9.944;2022-09-09T12:06:45;25.70;99.90
5457;DHT22;2751;49.802;9.944;2022-09-09T12:09:22;24.90;99.90
5457;DHT22;2751;49.802;9.944;2022-09-09T12:11:53;24.50;99.90
5457;DHT22;2751;49.802;9.944;2022-09-09T12:14:36;24.10;99.90
5457;DHT22;2751;49.802;9.944;2022-09-09T12:17:17;23.60;99.90
5457;DHT22;2751;49.802;9.944;2022-09-09T12:19:45;24.00;99.90
5457;DHT22;2751;49.802;9.944;2022-09-09T12:22:20;26.60;99.90
5457;DHT22;2751;49.802;9.944;2022-09-09T12:24:56;28.80;99.90
5457;DHT22;2751;49.802;9.944;2022-09-09T12:27:28;29.60;95.00
5457;DHT22;2751;49.802;9.944;2022-09-09T12:30:02;29.20;92.30
5457;DHT22;2751;49.802;9.944;2022-09-09T12:32:30;27.60;91.20
5457;DHT22;2751;49.802;9.944;2022-09-09T12:35:00;26.70;94.30
5457;DHT22;2751;49.802;9.944;2022-09-09T12:37:34;26.10;95.10
5457;DHT22;2751;49.802;9.944;2022-09-09T12:40:03;25.10;97.00
5457;DHT22;2751;49.802;9.944;2022-09-09T12:42:32;24.30;97.10
5457;DHT22;2751;49.802;9.944;2022-09-09T12:45:01;23.60;97.70
5457;DHT22;2751;49.802;9.944;2022-09-09T12:47:37;23.40;99.90
5457;DHT22;2751;49.802;9.944;2022-09-09T12:50:15;24.50;99.20
5457;DHT22;2751;49.802;9.944;2022-09-09T12:52:43;27.60;94.90
5457;DHT22;2751;49.802;9.944;2022-09-09T12:55:18;30.00;83.10
5457;DHT22;2751;49.802;9.944;2022-09-09T12:57:49;31.20;76.20
5457;DHT22;2751;49.802;9.944;2022-09-09T13:00:19;32.10;69.50
5457;DHT22;2751;49.802;9.944;2022-09-09T13:02:50;32.70;64.00
5457;DHT22;2751;49.802;9.944;2022-09-09T13:05:20;33.60;61.60
5457;DHT22;2751;49.802;9.944;2022-09-09T13:07:47;33.90;58.40
5457;DHT22;2751;49.802;9.944;2022-09-09T13:10:19;33.60;59.40
5457;DHT22;2751;49.802;9.944;2022-09-09T13:12:49;33.90;54.70
5457;DHT22;2751;49.802;9.944;2022-09-09T13:15:21;32.00;58.30
5457;DHT22;2751;49.802;9.944;2022-09-09T13:17:51;30.60;60.80
5457;DHT22;2751;49.802;9.944;2022-09-09T13:20:21;29.90;62.00
5457;DHT22;2751;49.802;9.944;2022-09-09T13:22:49;29.10;64.10
5457;DHT22;2751;49.802;9.944;2022-09-09T13:25:20;28.70;66.00
5457;DHT22;2751;49.802;9.944;2022-09-09T13:27:58;28.40;63.60
5457;DHT22;2751;49.802;9.944;2022-09-09T13:30:28;27.50;66.40
5457;DHT22;2751;49.802;9.944;2022-09-09T13:33:18;26.70;68.00
5457;DHT22;2751;49.802;9.944;2022-09-09T13:35:49;26.10;69.70
5457;DHT22;2751;49.802;9.944;2022-09-09T13:38:16;27.00;69.60
5457;DHT22;2751;49.802;9.944;2022-09-09T13:40:53;27.40;65.40
5457;DHT22;2751;49.802;9.944;2022-09-09T13:43:25;27.10;63.30
5457;DHT22;2751;49.802;9.944;2022-09-09T13:45:56;27.30;60.10
5457;DHT22;2751;49.802;9.944;2022-09-09T13:48:24;27.40;58.40
5457;DHT22;2751;49.802;9.944;2022-09-09T13:51:00;26.90;58.40
5457;DHT22;2751;49.802;9.944;2022-09-09T13:53:28;26.40;58.70
5457;DHT22;2751;49.802;9.944;2022-09-09T13:55:56;25.80;61.60
5457;DHT22;2751;49.802;9.944;2022-09-09T13:58:25;25.40;61.90
5457;DHT22;2751;49.802;9.944;2022-09-09T14:00:52;25.20;62.70
5457;DHT22;2751;49.802;9.944;2022-09-09T14:03:20;25.10;64.10
5457;DHT22;2751;49.802;9.944;2022-09-09T14:05:47;24.80;67.50
5457;DHT22;2751;49.802;9.944;2022-09-09T14:08:24;24.80;67.50
5457;DHT22;2751;49.802;9.944;2022-09-09T14:10:52;24.70;68.30
5457;DHT22;2751;49.802;9.944;2022-09-09T14:13:21;24.70;67.70
5457;DHT22;2751;49.802;9.944;2022-09-09T14:15:49;24.60;70.50
5457;DHT22;2751;49.802;9.944;2022-09-09T14:18:16;24.50;69.40
5457;DHT22;2751;49.802;9.944;2022-09-09T14:20:44;24.50;72.10
5457;DHT22;2751;49.802;9.944;2022-09-09T14:23:12;24.50;69.50
5457;DHT22;2751;49.802;9.944;2022-09-09T14:25:42;24.70;70.00
5457;DHT22;2751;49.802;9.944;2022-09-09T14:28:10;24.90;69.10
5457;DHT22;2751;49.802;9.944;2022-09-09T14:30:39;25.10;68.30
5457;DHT22;2751;49.802;9.944;2022-09-09T14:33:10;25.30;68.50
5457;DHT22;2751;49.802;9.944;2022-09-09T14:35:37;25.10;66.90
5457;DHT22;2751;49.802;9.944;2022-09-09T14:38:06;24.80;68.00
5457;DHT22;2751;49.802;9.944;2022-09-09T14:40:34;24.70;70.30
5457;DHT22;2751;49.802;9.944;2022-09-09T14:43:01;24.30;69.40
5457;DHT22;2751;49.802;9.944;2022-09-09T14:45:28;23.80;70.30
5457;DHT22;2751;49.802;9.944;2022-09-09T14:47:56;23.40;69.00
5457;DHT22;2751;49.802;9.944;2022-09-09T14:50:26;23.10;69.90
5457;DHT22;2751;49.802;9.944;2022-09-09T14:52:53;22.70;71.90
5457;DHT22;2751;49.802;9.944;2022-09-09T14:55:20;21.30;99.90
5457;DHT22;2751;49.802;9.944;2022-09-09T14:57:47;18.30;99.90
5457;DHT22;2751;49.802;9.944;2022-09-09T15:00:14;16.90;99.90
5457;DHT22;2751;49.802;9.944;2022-09-09T15:02:41;16.50;99.90
5457;DHT22;2751;49.802;9.944;2022-09-09T15:05:08;16.50;99.90
5457;DHT22;2751;49.802;9.944;2022-09-09T15:07:37;16.60;99.90
5457;DHT22;2751;49.802;9.944;2022-09-09T15:10:05;16.60;99.90
5457;DHT22;2751;49.802;9.944;2022-09-09T15:12:32;16.60;99.90
5457;DHT22;2751;49.802;9.944;2022-09-09T15:15:01;16.70;99.90
5457;DHT22;2751;49.802;9.944;2022-09-09T15:17:28;16.80;99.90
5457;DHT22;2751;49.802;9.944;2022-09-09T15:19:54;17.00;99.90
5457;DHT22;2751;49.802;9.944;2022-09-09T15:22:21;17.10;99.90
5457;DHT22;2751;49.802;9.944;2022-09-09T15:24:51;17.20;99.90
5457;DHT22;2751;49.802;9.944;2022-09-09T15:27:18;17.40;99.90
5457;DHT22;2751;49.802;9.944;2022-09-09T15:29:45;17.50;99.90
5457;DHT22;2751;49.802;9.944;2022-09-09T15:32:12;17.60;99.90
5457;DHT22;2751;49.802;9.944;2022-09-09T15:34:39;17.90;99.90
5457;DHT22;2751;49.802;9.944;2022-09-09T15:37:06;18.20;99.90
5457;DHT22;2751;49.802;9.944;2022-09-09T15:39:38;18.40;99.90
5457;DHT22;2751;49.802;9.944;2022-09-09T15:42:07;18.70;99.90
5457;DHT22;2751;49.802;9.944;2022-09-09T15:44:39;18.80;99.90
5457;DHT22;2751;49.802;9.944;2022-09-09T15:47:07;19.00;99.90
5457;DHT22;2751;49.802;9.944;2022-09-09T15:49:38;19.20;99.90
5457;DHT22;2751;49.802;9.944;2022-09-09T15:52:04;19.30;99.90
5457;DHT22;2751;49.802;9.944;2022-09-09T15:54:33;19.40;99.90
5457;DHT22;2751;49.802;9.944;2022-09-09T15:57:04;19.40;99.90
5457;DHT22;2751;49.802;9.944;2022-09-09T15:59:33;19.40;99.90
5457;DHT22;2751;49.802;9.944;2022-09-09T16:02:00;19.30;99.90
5457;DHT22;2751;49.802;9.944;2022-09-09T16:04:28;19.20;99.90
5457;DHT22;2751;49.802;9.944;2022-09-09T16:06:56;19.10;99.90
5457;DHT22;2751;49.802;9.944;2022-09-09T16:09:24;19.00;99.90
5457;DHT22;2751;49.802;9.944;2022-09-09T16:11:51;19.00;99.90
5457;DHT22;2751;49.802;9.944;2022-09-09T16:14:18;19.00;99.90
5457;DHT22;2751;49.802;9.944;2022-09-09T16:16:47;19.10;99.90
5457;DHT22;2751;49.802;9.944;2022-09-09T16:19:13;19.10;99.90
5457;DHT22;2751;49.802;9.944;2022-09-09T16:21:43;19.10;99.90
5457;DHT22;2751;49.802;9.944;2022-09-09T16:24:12;19.10;99.90
5457;DHT22;2751;49.802;9.944;2022-09-09T16:26:41;19.10;99.90
5457;DHT22;2751;49.802;9.944;2022-09-09T16:29:10;19.10;99.90
5457;DHT22;2751;49.802;9.944;2022-09-09T16:31:37;19.00;99.90